sensor_id;sensor_type;location;lat;lon;timestamp;temperature;humidity
1534;DHT22;760;48.822;9.304;2023-05-10T04:06:15;12.90;99.90
1534;DHT22;760;48.822;9.304;2023-05-10T04:08:41;12.90;99.90
1534;DHT22;760;48.822;9.304;2023-05-10T04:11:11;12.90;99.90
1534;DHT22;760;48.822;9.304;2023-05-10T04:13:37;12.90;99.90
1534;DHT22;760;48.822;9.304;2023-05-10T04:16:03;12.90;99.90
1534;DHT22;760;48.822;9.304;2023-05-10T04:18:30;12.90;99.90
1534;DHT22;760;48.822;9.304;2023-05-10T04:20:55;12.90;99.90
1534;DHT22;760;48.822;9.304;2023-05-10T04:23:21;12.90;99.90
1534;DHT22;760;48.822;9.304;2023-05-10T04:25:47;12.90;99.90
1534;DHT22;760;48.822;9.304;2023-05-10T04:28:12;12.90;99.90
1534;DHT22;760;48.822;9.304;2023-05-10T04:30:38;13.00;99.90
1534;DHT22;760;48.822;9.304;2023-05-10T04:33:04;13.00;99.90
1534;DHT22;760;48.822;9.304;2023-05-10T04:35:29;13.10;99.90
1534;DHT22;760;48.822;9.304;2023-05-10T04:37:55;13.10;99.90
1534;DHT22;760;48.822;9.304;2023-05-10T04:40:21;13.10;99.90
1534;DHT22;760;48.822;9.304;2023-05-10T04:42:47;13.10;99.90
1534;DHT22;760;48.822;9.304;2023-05-10T04:45:12;13.10;99.90
1534;DHT22;760;48.822;9.304;2023-05-10T04:47:40;13.10;99.90
1534;DHT22;760;48.822;9.304;2023-05-10T04:50:06;13.20;99.90
1534;DHT22;760;48.822;9.304;2023-05-10T04:52:32;13.20;99.90
1534;DHT22;760;48.822;9.304;2023-05-10T04:54:58;13.20;99.90
1534;DHT22;760;48.822;9.304;2023-05-10T04:57:23;13.20;99.90
1534;DHT22;760;48.822;9.304;2023-05-10T04:59:49;13.30;99.90
1534;DHT22;760;48.822;9.304;2023-05-10T05:02:14;13.30;99.90
1534;DHT22;760;48.822;9.304;2023-05-10T05:04:40;13.30;99.90
1534;DHT22;760;48.822;9.304;2023-05-10T05:07:06;13.30;99.90
1534;DHT22;760;48.822;9.304;2023-05-10T05:09:31;13.40;99.90
1534;DHT22;760;48.822;9.304;2023-05-10T05:12:00;13.40;99.90
1534;DHT22;760;48.822;9.304;2023-05-10T05:14:25;13.50;99.90
1534;DHT22;760;48.822;9.304;2023-05-10T05:16:52;13.60;99.90
1534;DHT22;760;48.822;9.304;2023-05-10T05:19:18;13.70;99.90
1534;DHT22;760;48.822;9.304;2023-05-10T05:21:43;13.80;99.90
1534;DHT22;760;48.822;9.304;2023-05-10T05:24:09;13.90;99.90
1534;DHT22;760;48.822;9.304;2023-05-10T05:26:35;14.00;99.90
1534;DHT22;760;48.822;9.304;2023-05-10T05:29:02;14.10;99.90
1534;DHT22;760;48.822;9.304;2023-05-10T05:31:28;14.20;99.90
1534;DHT22;760;48.822;9.304;2023-05-10T05:33:54;14.20;99.90
1534;DHT22;760;48.822;9.304;2023-05-10T05:36:19;14.30;99.90
1534;DHT22;760;48.822;9.304;2023-05-10T05:38:45;14.40;99.90
1534;DHT22;760;48.822;9.304;2023-05-10T05:41:10;14.40;99.90
1534;DHT22;760;48.822;9.304;2023-05-10T05:43:36;14.50;99.90
1534;DHT22;760;48.822;9.304;2023-05-10T05:46:02;14.60;99.90
1534;DHT22;760;48.822;9.304;2023-05-10T05:48:29;14.60;99.90
1534;DHT22;760;48.822;9.304;2023-05-10T05:50:56;14.80;99.90
1534;DHT22;760;48.822;9.304;2023-05-10T05:53:24;14.90;99.90
1534;DHT22;760;48.822;9.304;2023-05-10T05:55:57;15.00;99.90
1534;DHT22;760;48.822;9.304;2023-05-10T05:58:23;15.10;99.90
1534;DHT22;760;48.822;9.304;2023-05-10T06:00:50;15.20;99.90
1534;DHT22;760;48.822;9.304;2023-05-10T06:03:17;15.20;99.90
1534;DHT22;760;48.822;9.304;2023-05-10T06:05:43;15.20;99.90
1534;DHT22;760;48.822;9.304;2023-05-10T06:08:09;15.30;99.90
1534;DHT22;760;48.822;9.304;2023-05-10T06:10:35;15.30;99.90
1534;DHT22;760;48.822;9.304;2023-05-10T06:13:00;15.20;99.90
1534;DHT22;760;48.822;9.304;2023-05-10T06:15:27;15.30;99.90
1534;DHT22;760;48.822;9.304;2023-05-10T06:17:52;15.30;99.90
1534;DHT22;760;48.822;9.304;2023-05-10T06:20:18;15.30;99.90
1534;DHT22;760;48.822;9.304;2023-05-10T06:22:43;15.30;99.90
1534;DHT22;760;48.822;9.304;2023-05-10T06:25:09;15.30;99.90
1534;DHT22;760;48.822;9.304;2023-05-10T06:27:35;15.30;99.90
1534;DHT22;760;48.822;9.304;2023-05-10T06:30:01;15.30;99.90
1534;DHT22;760;48.822;9.304;2023-05-10T06:32:28;15.40;99.90
1534;DHT22;760;48.822;9.304;2023-05-10T06:34:53;15.30;99.90
1534;DHT22;760;48.822;9.304;2023-05-10T06:37:19;15.30;99.90
1534;DHT22;760;48.822;9.304;2023-05-10T06:39:44;15.30;99.90
1534;DHT22;760;48.822;9.304;2023-05-10T06:42:10;15.30;99.90
1534;DHT22;760;48.822;9.304;2023-05-10T06:44:36;15.40;99.90
1534;DHT22;760;48.822;9.304;2023-05-10T06:47:01;15.40;99.90
1534;DHT22;760;48.822;9.304;2023-05-10T06:49:27;15.40;99.90
1534;DHT22;760;48.822;9.304;2023-05-10T06:51:52;15.40;99.90
1534;DHT22;760;48.822;9.304;2023-05-10T06:54:18;15.40;99.90
1534;DHT22;760;48.822;9.304;2023-05-10T06:56:44;15.40;99.90
1534;DHT22;760;48.822;9.304;2023-05-10T06:59:10;15.60;99.90
1534;DHT22;760;48.822;9.304;2023-05-10T07:01:35;15.60;99.90
1534;DHT22;760;48.822;9.304;2023-05-10T07:04:02;15.70;99.90
1534;DHT22;760;48.822;9.304;2023-05-10T07:06:27;15.70;99.90
1534;DHT22;760;48.822;9.304;2023-05-10T07:08:54;15.80;99.90
1534;DHT22;760;48.822;9.304;2023-05-10T07:11:19;15.80;99.90
1534;DHT22;760;48.822;9.304;2023-05-10T07:13:45;15.90;99.90
1534;DHT22;760;48.822;9.304;2023-05-10T07:16:11;16.00;99.90
1534;DHT22;760;48.822;9.304;2023-05-10T07:18:37;16.00;99.90
1534;DHT22;760;48.822;9.304;2023-05-10T07:21:03;16.00;99.90
1534;DHT22;760;48.822;9.304;2023-05-10T07:23:29;15.90;99.90
1534;DHT22;760;48.822;9.304;2023-05-10T07:25:55;15.90;99.90
1534;DHT22;760;48.822;9.304;2023-05-10T07:28:23;16.00;99.90
1534;DHT22;760;48.822;9.304;2023-05-10T07:30:49;16.10;99.90
1534;DHT22;760;48.822;9.304;2023-05-10T07:33:15;16.20;99.90
1534;DHT22;760;48.822;9.304;2023-05-10T07:35:41;16.30;99.90
1534;DHT22;760;48.822;9.304;2023-05-10T07:38:07;16.50;99.90
1534;DHT22;760;48.822;9.304;2023-05-10T07:40:33;16.70;99.90
1534;DHT22;760;48.822;9.304;2023-05-10T07:42:59;16.80;99.90
1534;DHT22;760;48.822;9.304;2023-05-10T07:45:27;17.00;99.90
1534;DHT22;760;48.822;9.304;2023-05-10T07:47:52;17.10;99.90
1534;DHT22;760;48.822;9.304;2023-05-10T07:50:18;17.30;99.90
1534;DHT22;760;48.822;9.304;2023-05-10T07:52:43;17.40;99.90
1534;DHT22;760;48.822;9.304;2023-05-10T07:55:09;17.60;99.90
1534;DHT22;760;48.822;9.304;2023-05-10T07:57:35;17.80;99.90
1534;DHT22;760;48.822;9.304;2023-05-10T08:00:01;17.90;99.90
1534;DHT22;760;48.822;9.304;2023-05-10T08:02:26;18.00;99.90
1534;DHT22;760;48.822;9.304;2023-05-10T08:04:52;18.10;99.90
1534;DHT22;760;48.822;9.304;2023-05-10T08:07:18;18.20;99.90
1534;DHT22;760;48.822;9.304;2023-05-10T08:09:43;18.10;99.90
1534;DHT22;760;48.822;9.304;2023-05-10T08:12:09;18.00;99.90
1534;DHT22;760;48.822;9.304;2023-05-10T08:14:35;18.10;99.90
1534;DHT22;760;48.822;9.304;2023-05-10T08:17:02;18.00;99.90
1534;DHT22;760;48.822;9.304;2023-05-10T08:19:28;18.00;99.90
1534;DHT22;760;48.822;9.304;2023-05-10T08:21:54;17.80;99.90
1534;DHT22;760;48.822;9.304;2023-05-10T08:24:21;17.70;99.90
1534;DHT22;760;48.822;9.304;2023-05-10T08:26:47;17.60;99.90
1534;DHT22;760;48.822;9.304;2023-05-10T08:29:13;17.40;99.90
1534;DHT22;760;48.822;9.304;2023-05-10T08:31:39;17.30;99.90
1534;DHT22;760;48.822;9.304;2023-05-10T08:34:05;17.30;99.90
1534;DHT22;760;48.822;9.304;2023-05-10T08:36:30;17.30;99.90
1534;DHT22;760;48.822;9.304;2023-05-10T08:38:57;17.20;99.90
1534;DHT22;760;48.822;9.304;2023-05-10T08:41:24;17.20;99.90
1534;DHT22;760;48.822;9.304;2023-05-10T08:43:51;17.20;99.90
1534;DHT22;760;48.822;9.304;2023-05-10T08:46:19;17.20;99.90
1534;DHT22;760;48.822;9.304;2023-05-10T08:48:46;17.30;99.90
1534;DHT22;760;48.822;9.304;2023-05-10T08:51:18;17.30;99.90
1534;DHT22;760;48.822;9.304;2023-05-10T08:53:45;17.30;99.90
1534;DHT22;760;48.822;9.304;2023-05-10T08:56:10;17.40;99.90
1534;DHT22;760;48.822;9.304;2023-05-10T08:58:37;17.50;99.90
1534;DHT22;760;48.822;9.304;2023-05-10T09:01:04;17.50;99.90
1534;DHT22;760;48.822;9.304;2023-05-10T09:03:31;17.50;99.90
1534;DHT22;760;48.822;9.304;2023-05-10T09:05:56;17.40;99.90
1534;DHT22;760;48.822;9.304;2023-05-10T09:08:25;17.40;99.90
1534;DHT22;760;48.822;9.304;2023-05-10T09:10:51;17.50;99.90
1534;DHT22;760;48.822;9.304;2023-05-10T09:13:18;17.70;99.90
1534;DHT22;760;48.822;9.304;2023-05-10T09:15:45;17.80;99.90
1534;DHT22;760;48.822;9.304;2023-05-10T09:18:11;18.10;99.90
1534;DHT22;760;48.822;9.304;2023-05-10T09:20:37;18.50;99.90
1534;DHT22;760;48.822;9.304;2023-05-10T09:23:03;18.80;99.90
1534;DHT22;760;48.822;9.304;2023-05-10T09:25:28;19.20;99.90
1534;DHT22;760;48.822;9.304;2023-05-10T09:27:55;19.60;99.90
1534;DHT22;760;48.822;9.304;2023-05-10T09:30:28;19.90;99.90
1534;DHT22;760;48.822;9.304;2023-05-10T09:32:55;20.20;99.90
1534;DHT22;760;48.822;9.304;2023-05-10T09:35:22;20.30;99.90
1534;DHT22;760;48.822;9.304;2023-05-10T09:37:50;20.40;99.90
1534;DHT22;760;48.822;9.304;2023-05-10T09:40:27;20.40;99.90
1534;DHT22;760;48.822;9.304;2023-05-10T09:43:01;20.40;99.90
1534;DHT22;760;48.822;9.304;2023-05-10T09:45:29;20.30;99.90
1534;DHT22;760;48.822;9.304;2023-05-10T09:47:55;20.40;99.90
1534;DHT22;760;48.822;9.304;2023-05-10T09:50:21;20.50;99.90
1534;DHT22;760;48.822;9.304;2023-05-10T09:52:52;20.50;99.90
1534;DHT22;760;48.822;9.304;2023-05-10T09:55:20;20.30;99.90
1534;DHT22;760;48.822;9.304;2023-05-10T09:57:47;20.20;99.90
1534;DHT22;760;48.822;9.304;2023-05-10T10:00:18;20.20;99.90
1534;DHT22;760;48.822;9.304;2023-05-10T10:02:53;20.40;99.90
1534;DHT22;760;48.822;9.304;2023-05-10T10:05:19;20.50;99.90
1534;DHT22;760;48.822;9.304;2023-05-10T10:07:45;20.40;99.90
1534;DHT22;760;48.822;9.304;2023-05-10T10:10:10;20.40;99.90
1534;DHT22;760;48.822;9.304;2023-05-10T10:12:39;20.40;99.90
1534;DHT22;760;48.822;9.304;2023-05-10T10:15:05;20.40;99.90
1534;DHT22;760;48.822;9.304;2023-05-10T10:17:32;20.20;99.90
1534;DHT22;760;48.822;9.304;2023-05-10T10:20:01;20.00;99.90
1534;DHT22;760;48.822;9.304;2023-05-10T10:22:27;19.60;99.90
1534;DHT22;760;48.822;9.304;2023-05-10T10:24:54;19.30;99.90
1534;DHT22;760;48.822;9.304;2023-05-10T10:27:26;19.10;99.90
1534;DHT22;760;48.822;9.304;2023-05-10T10:30:28;18.90;99.90
1534;DHT22;760;48.822;9.304;2023-05-10T10:33:13;18.70;99.90
1534;DHT22;760;48.822;9.304;2023-05-10T10:35:42;18.80;99.90
1534;DHT22;760;48.822;9.304;2023-05-10T10:38:08;19.10;99.90
1534;DHT22;760;48.822;9.304;2023-05-10T10:40:34;19.40;99.90
1534;DHT22;760;48.822;9.304;2023-05-10T10:43:27;19.50;99.90
1534;DHT22;760;48.822;9.304;2023-05-10T10:46:12;19.60;99.90
1534;DHT22;760;48.822;9.304;2023-05-10T10:48:39;19.40;99.90
1534;DHT22;760;48.822;9.304;2023-05-10T10:51:05;19.20;99.90
1534;DHT22;760;48.822;9.304;2023-05-10T10:53:30;19.00;99.90
1534;DHT22;760;48.822;9.304;2023-05-10T10:56:12;19.00;99.90
1534;DHT22;760;48.822;9.304;2023-05-10T10:58:40;18.90;99.90
1534;DHT22;760;48.822;9.304;2023-05-10T11:01:32;18.90;99.90
1534;DHT22;760;48.822;9.304;2023-05-10T11:09:09;19.10;99.90
1534;DHT22;760;48.822;9.304;2023-05-10T11:11:36;19.20;99.90
1534;DHT22;760;48.822;9.304;2023-05-10T11:14:06;19.40;99.90
1534;DHT22;760;48.822;9.304;2023-05-10T11:16:44;19.50;99.90
1534;DHT22;760;48.822;9.304;2023-05-10T11:19:12;19.40;99.90
1534;DHT22;760;48.822;9.304;2023-05-10T11:21:49;19.40;99.90
1534;DHT22;760;48.822;9.304;2023-05-10T11:24:17;19.40;99.90
1534;DHT22;760;48.822;9.304;2023-05-10T11:26:43;19.40;99.90
1534;DHT22;760;48.822;9.304;2023-05-10T11:29:09;19.20;99.90
1534;DHT22;760;48.822;9.304;2023-05-10T11:31:35;19.10;99.90
1534;DHT22;760;48.822;9.304;2023-05-10T11:34:06;19.00;99.90
1534;DHT22;760;48.822;9.304;2023-05-10T11:36:34;18.90;99.90
1534;DHT22;760;48.822;9.304;2023-05-10T11:38:59;18.90;99.90
1534;DHT22;760;48.822;9.304;2023-05-10T11:41:28;18.90;99.90
1534;DHT22;760;48.822;9.304;2023-05-10T11:43:54;18.90;99.90
1534;DHT22;760;48.822;9.304;2023-05-10T11:46:25;18.90;99.90
1534;DHT22;760;48.822;9.304;2023-05-10T11:48:53;18.90;99.90
1534;DHT22;760;48.822;9.304;2023-05-10T11:51:21;18.90;99.90
1534;DHT22;760;48.822;9.304;2023-05-10T11:53:46;18.90;99.90
1534;DHT22;760;48.822;9.304;2023-05-10T11:56:12;18.90;99.90
1534;DHT22;760;48.822;9.304;2023-05-10T11:58:39;18.90;99.90
1534;DHT22;760;48.822;9.304;2023-05-10T12:01:07;18.80;99.90
1534;DHT22;760;48.822;9.304;2023-05-10T12:03:33;18.70;99.90
1534;DHT22;760;48.822;9.304;2023-05-10T12:06:00;18.70;99.90
1534;DHT22;760;48.822;9.304;2023-05-10T12:08:28;18.60;99.90
1534;DHT22;760;48.822;9.304;2023-05-10T12:11:07;18.70;99.90
1534;DHT22;760;48.822;9.304;2023-05-10T12:13:38;18.60;99.90
1534;DHT22;760;48.822;9.304;2023-05-10T12:16:15;18.70;99.90
1534;DHT22;760;48.822;9.304;2023-05-10T12:18:41;18.60;99.90
1534;DHT22;760;48.822;9.304;2023-05-10T12:21:10;18.50;99.90
1534;DHT22;760;48.822;9.304;2023-05-10T12:23:36;18.50;99.90
1534;DHT22;760;48.822;9.304;2023-05-10T12:26:05;18.40;99.90
1534;DHT22;760;48.822;9.304;2023-05-10T12:28:31;18.40;99.90
1534;DHT22;760;48.822;9.304;2023-05-10T12:30:58;18.40;99.90
1534;DHT22;760;48.822;9.304;2023-05-10T12:33:24;18.50;99.90
1534;DHT22;760;48.822;9.304;2023-05-10T12:35:52;18.40;99.90
1534;DHT22;760;48.822;9.304;2023-05-10T12:38:35;18.30;99.90
1534;DHT22;760;48.822;9.304;2023-05-10T12:41:04;18.30;99.90
1534;DHT22;760;48.822;9.304;2023-05-10T12:43:31;18.30;99.90
1534;DHT22;760;48.822;9.304;2023-05-10T12:45:57;18.20;99.90
1534;DHT22;760;48.822;9.304;2023-05-10T12:48:22;18.30;99.90
1534;DHT22;760;48.822;9.304;2023-05-10T12:50:49;18.40;99.90
1534;DHT22;760;48.822;9.304;2023-05-10T12:53:15;18.50;99.90
1534;DHT22;760;48.822;9.304;2023-05-10T12:55:42;18.60;99.90
1534;DHT22;760;48.822;9.304;2023-05-10T12:58:07;18.60;99.90
1534;DHT22;760;48.822;9.304;2023-05-10T13:00:33;18.70;99.90
1534;DHT22;760;48.822;9.304;2023-05-10T13:02:59;18.90;99.90
1534;DHT22;760;48.822;9.304;2023-05-10T13:05:24;19.00;99.90
1534;DHT22;760;48.822;9.304;2023-05-10T13:07:50;19.10;99.90
1534;DHT22;760;48.822;9.304;2023-05-10T13:10:16;19.20;99.90
1534;DHT22;760;48.822;9.304;2023-05-10T13:12:42;19.20;99.90
1534;DHT22;760;48.822;9.304;2023-05-10T13:15:07;19.30;99.90
1534;DHT22;760;48.822;9.304;2023-05-10T13:17:33;19.20;99.90
1534;DHT22;760;48.822;9.304;2023-05-10T13:19:59;19.20;99.90
1534;DHT22;760;48.822;9.304;2023-05-10T13:22:25;19.20;99.70
1534;DHT22;760;48.822;9.304;2023-05-10T13:24:51;19.10;99.10
1534;DHT22;760;48.822;9.304;2023-05-10T13:27:17;19.00;99.60
1534;DHT22;760;48.822;9.304;2023-05-10T13:29:43;18.80;98.80
1534;DHT22;760;48.822;9.304;2023-05-10T13:32:08;18.60;99.30
1534;DHT22;760;48.822;9.304;2023-05-10T13:34:34;18.50;99.70
1534;DHT22;760;48.822;9.304;2023-05-10T13:37:01;18.30;99.60
1534;DHT22;760;48.822;9.304;2023-05-10T13:39:26;18.20;99.90
1534;DHT22;760;48.822;9.304;2023-05-10T13:41:52;18.20;99.90
1534;DHT22;760;48.822;9.304;2023-05-10T13:44:19;18.00;99.90
1534;DHT22;760;48.822;9.304;2023-05-10T13:46:45;17.90;99.90
1534;DHT22;760;48.822;9.304;2023-05-10T13:49:11;17.80;99.90
1534;DHT22;760;48.822;9.304;2023-05-10T13:51:37;17.70;99.90
1534;DHT22;760;48.822;9.304;2023-05-10T13:54:03;17.70;99.90
1534;DHT22;760;48.822;9.304;2023-05-10T13:56:28;17.80;99.90
1534;DHT22;760;48.822;9.304;2023-05-10T13:58:55;17.90;99.90
1534;DHT22;760;48.822;9.304;2023-05-10T14:01:21;18.00;99.90
1534;DHT22;760;48.822;9.304;2023-05-10T14:03:46;18.30;99.90
1534;DHT22;760;48.822;9.304;2023-05-10T14:06:12;18.50;99.90
1534;DHT22;760;48.822;9.304;2023-05-10T14:08:37;18.60;99.90
1534;DHT22;760;48.822;9.304;2023-05-10T14:11:03;18.80;99.90
1534;DHT22;760;48.822;9.304;2023-05-10T14:13:29;18.90;99.90
1534;DHT22;760;48.822;9.304;2023-05-10T14:15:54;18.70;98.40
1534;DHT22;760;48.822;9.304;2023-05-10T14:18:20;18.80;99.70
1534;DHT22;760;48.822;9.304;2023-05-10T14:20:46;18.70;99.90
1534;DHT22;760;48.822;9.304;2023-05-10T14:23:12;18.70;99.90
1534;DHT22;760;48.822;9.304;2023-05-10T14:25:41;18.80;99.90
1534;DHT22;760;48.822;9.304;2023-05-10T14:28:06;18.90;99.90
1534;DHT22;760;48.822;9.304;2023-05-10T14:30:32;18.90;99.90
1534;DHT22;760;48.822;9.304;2023-05-10T14:33:00;18.90;99.70
1534;DHT22;760;48.822;9.304;2023-05-10T14:35:27;18.90;99.50
1534;DHT22;760;48.822;9.304;2023-05-10T14:37:53;18.90;99.30
1534;DHT22;760;48.822;9.304;2023-05-10T14:40:18;18.90;99.90
1534;DHT22;760;48.822;9.304;2023-05-10T14:42:44;18.90;99.90
1534;DHT22;760;48.822;9.304;2023-05-10T14:45:10;18.90;99.40
1534;DHT22;760;48.822;9.304;2023-05-10T14:47:37;19.00;99.70
1534;DHT22;760;48.822;9.304;2023-05-10T14:50:03;19.10;99.50
1534;DHT22;760;48.822;9.304;2023-05-10T14:52:29;19.10;99.40
1534;DHT22;760;48.822;9.304;2023-05-10T14:54:54;19.10;98.50
1534;DHT22;760;48.822;9.304;2023-05-10T14:57:20;19.10;98.40
1534;DHT22;760;48.822;9.304;2023-05-10T14:59:46;19.10;98.40
1534;DHT22;760;48.822;9.304;2023-05-10T15:02:11;19.20;98.40
1534;DHT22;760;48.822;9.304;2023-05-10T15:04:37;19.20;97.80
1534;DHT22;760;48.822;9.304;2023-05-10T15:07:03;19.20;98.30
1534;DHT22;760;48.822;9.304;2023-05-10T15:09:29;19.10;97.70
1534;DHT22;760;48.822;9.304;2023-05-10T15:11:55;19.00;97.60
1534;DHT22;760;48.822;9.304;2023-05-10T15:14:23;19.10;97.40
1534;DHT22;760;48.822;9.304;2023-05-10T15:16:48;19.00;98.40
1534;DHT22;760;48.822;9.304;2023-05-10T15:19:14;19.00;98.20
1534;DHT22;760;48.822;9.304;2023-05-10T15:21:40;19.00;98.20
1534;DHT22;760;48.822;9.304;2023-05-10T15:24:08;19.00;97.90
1534;DHT22;760;48.822;9.304;2023-05-10T15:26:35;19.00;97.60
1534;DHT22;760;48.822;9.304;2023-05-10T15:29:00;19.00;97.80
1534;DHT22;760;48.822;9.304;2023-05-10T15:31:26;19.00;98.60
1534;DHT22;760;48.822;9.304;2023-05-10T15:33:57;18.90;99.40
1534;DHT22;760;48.822;9.304;2023-05-10T15:36:24;18.80;99.30
1534;DHT22;760;48.822;9.304;2023-05-10T15:38:50;18.80;99.30
1534;DHT22;760;48.822;9.304;2023-05-10T15:41:15;18.60;98.80
1534;DHT22;760;48.822;9.304;2023-05-10T15:43:41;18.50;98.90
1534;DHT22;760;48.822;9.304;2023-05-10T15:46:07;18.40;99.40
1534;DHT22;760;48.822;9.304;2023-05-10T15:48:32;18.40;99.70
1534;DHT22;760;48.822;9.304;2023-05-10T15:50:58;18.40;99.50
1534;DHT22;760;48.822;9.304;2023-05-10T15:53:24;18.30;99.90
1534;DHT22;760;48.822;9.304;2023-05-10T15:55:50;18.30;99.90
1534;DHT22;760;48.822;9.304;2023-05-10T15:58:16;18.30;99.90
1534;DHT22;760;48.822;9.304;2023-05-10T16:00:41;18.30;99.90
1534;DHT22;760;48.822;9.304;2023-05-10T16:03:07;18.30;99.90
1534;DHT22;760;48.822;9.304;2023-05-10T16:05:33;18.30;99.90
1534;DHT22;760;48.822;9.304;2023-05-10T16:08:00;18.30;99.90
1534;DHT22;760;48.822;9.304;2023-05-10T16:10:26;18.20;99.70
1534;DHT22;760;48.822;9.304;2023-05-10T16:12:53;18.10;99.40
1534;DHT22;760;48.822;9.304;2023-05-10T16:15:19;18.10;99.90
1534;DHT22;760;48.822;9.304;2023-05-10T16:17:48;18.10;99.90
1534;DHT22;760;48.822;9.304;2023-05-10T16:20:14;18.00;99.90
1534;DHT22;760;48.822;9.304;2023-05-10T16:22:39;18.00;99.90
1534;DHT22;760;48.822;9.304;2023-05-10T16:25:06;18.00;99.90
1534;DHT22;760;48.822;9.304;2023-05-10T16:27:38;17.90;99.90
1534;DHT22;760;48.822;9.304;2023-05-10T16:30:05;17.80;99.90
1534;DHT22;760;48.822;9.304;2023-05-10T16:32:30;17.80;99.90
1534;DHT22;760;48.822;9.304;2023-05-10T16:34:57;17.70;99.90
1534;DHT22;760;48.822;9.304;2023-05-10T16:37:23;17.60;99.90
1534;DHT22;760;48.822;9.304;2023-05-10T16:39:49;17.60;99.90
1534;DHT22;760;48.822;9.304;2023-05-10T16:42:14;17.50;99.90
1534;DHT22;760;48.822;9.304;2023-05-10T16:44:41;17.50;99.90
1534;DHT22;760;48.822;9.304;2023-05-10T16:47:07;17.50;99.90
1534;DHT22;760;48.822;9.304;2023-05-10T16:49:34;17.50;99.90
1534;DHT22;760;48.822;9.304;2023-05-10T16:52:00;17.50;99.90
1534;DHT22;760;48.822;9.304;2023-05-10T16:54:27;17.40;99.90
1534;DHT22;760;48.822;9.304;2023-05-10T16:56:53;17.50;99.90
1534;DHT22;760;48.822;9.304;2023-05-10T16:59:19;17.40;99.90
1534;DHT22;760;48.822;9.304;2023-05-10T17:01:44;17.40;99.90
1534;DHT22;760;48.822;9.304;2023-05-10T17:04:11;17.30;99.90
1534;DHT22;760;48.822;9.304;2023-05-10T17:06:37;17.30;99.90
1534;DHT22;760;48.822;9.304;2023-05-10T17:09:03;17.30;99.90
1534;DHT22;760;48.822;9.304;2023-05-10T17:11:30;17.20;99.90
1534;DHT22;760;48.822;9.304;2023-05-10T17:13:57;17.20;99.90
1534;DHT22;760;48.822;9.304;2023-05-10T17:16:23;17.20;99.90
1534;DHT22;760;48.822;9.304;2023-05-10T17:18:48;17.10;99.90
1534;DHT22;760;48.822;9.304;2023-05-10T17:21:15;17.10;99.90
1534;DHT22;760;48.822;9.304;2023-05-10T17:23:41;17.10;99.90
1534;DHT22;760;48.822;9.304;2023-05-10T17:26:08;17.00;99.90
1534;DHT22;760;48.822;9.304;2023-05-10T17:28:33;17.00;99.90
1534;DHT22;760;48.822;9.304;2023-05-10T17:31:00;16.90;99.90
1534;DHT22;760;48.822;9.304;2023-05-10T17:33:26;16.90;99.90
1534;DHT22;760;48.822;9.304;2023-05-10T17:35:52;16.90;99.90
1534;DHT22;760;48.822;9.304;2023-05-10T17:38:17;16.70;99.90
1534;DHT22;760;48.822;9.304;2023-05-10T17:40:43;16.70;99.90
1534;DHT22;760;48.822;9.304;2023-05-10T17:43:08;16.70;99.90
1534;DHT22;760;48.822;9.304;2023-05-10T17:45:34;16.60;99.90
1534;DHT22;760;48.822;9.304;2023-05-10T17:48:00;16.60;99.90
1534;DHT22;760;48.822;9.304;2023-05-10T17:50:26;16.50;99.90
1534;DHT22;760;48.822;9.304;2023-05-10T17:52:51;16.40;99.90
1534;DHT22;760;48.822;9.304;2023-05-10T17:55:17;16.40;99.90
1534;DHT22;760;48.822;9.304;2023-05-10T17:57:42;16.40;99.90
1534;DHT22;760;48.822;9.304;2023-05-10T18:00:09;16.30;99.90
1534;DHT22;760;48.822;9.304;2023-05-10T18:02:35;16.30;99.90
1534;DHT22;760;48.822;9.304;2023-05-10T18:05:04;16.20;99.90
1534;DHT22;760;48.822;9.304;2023-05-10T18:07:30;16.20;99.90
1534;DHT22;760;48.822;9.304;2023-05-10T18:09:56;16.20;99.90
1534;DHT22;760;48.822;9.304;2023-05-10T18:12:22;16.20;99.90
1534;DHT22;760;48.822;9.304;2023-05-10T18:14:48;16.10;99.90
1534;DHT22;760;48.822;9.304;2023-05-10T18:17:13;16.10;99.90
1534;DHT22;760;48.822;9.304;2023-05-10T18:19:39;16.00;99.90
1534;DHT22;760;48.822;9.304;2023-05-10T18:22:05;16.00;99.90
1534;DHT22;760;48.822;9.304;2023-05-10T18:24:32;15.90;99.90
1534;DHT22;760;48.822;9.304;2023-05-10T18:26:57;15.90;99.90
1534;DHT22;760;48.822;9.304;2023-05-10T18:29:23;15.80;99.90
1534;DHT22;760;48.822;9.304;2023-05-10T18:31:49;15.80;99.90
1534;DHT22;760;48.822;9.304;2023-05-10T18:34:14;15.80;99.90
1534;DHT22;760;48.822;9.304;2023-05-10T18:36:40;15.70;99.90
1534;DHT22;760;48.822;9.304;2023-05-10T18:39:09;15.60;99.90
1534;DHT22;760;48.822;9.304;2023-05-10T18:41:35;15.60;99.90
1534;DHT22;760;48.822;9.304;2023-05-10T18:44:00;15.50;99.90
1534;DHT22;760;48.822;9.304;2023-05-10T18:46:26;15.50;99.90
1534;DHT22;760;48.822;9.304;2023-05-10T18:48:53;15.40;99.90
1534;DHT22;760;48.822;9.304;2023-05-10T18:51:19;15.30;99.90
1534;DHT22;760;48.822;9.304;2023-05-10T18:53:47;15.20;99.90
1534;DHT22;760;48.822;9.304;2023-05-10T18:56:13;15.20;99.90
1534;DHT22;760;48.822;9.304;2023-05-10T18:58:39;15.20;99.90
1534;DHT22;760;48.822;9.304;2023-05-10T19:01:05;15.10;99.90
1534;DHT22;760;48.822;9.304;2023-05-10T19:03:31;15.00;99.90
1534;DHT22;760;48.822;9.304;2023-05-10T19:05:57;14.90;99.90
1534;DHT22;760;48.822;9.304;2023-05-10T19:08:22;14.80;99.90
1534;DHT22;760;48.822;9.304;2023-05-10T19:10:48;14.70;99.90
1534;DHT22;760;48.822;9.304;2023-05-10T19:13:14;14.60;99.90
1534;DHT22;760;48.822;9.304;2023-05-10T19:15:39;14.50;99.90
1534;DHT22;760;48.822;9.304;2023-05-10T19:18:06;14.50;99.90
1534;DHT22;760;48.822;9.304;2023-05-10T19:20:32;14.40;99.90
1534;DHT22;760;48.822;9.304;2023-05-10T19:22:57;14.30;99.90
1534;DHT22;760;48.822;9.304;2023-05-10T19:25:23;14.20;99.90
1534;DHT22;760;48.822;9.304;2023-05-10T19:27:56;14.20;99.90
1534;DHT22;760;48.822;9.304;2023-05-10T19:30:23;14.10;99.90
1534;DHT22;760;48.822;9.304;2023-05-10T19:32:49;14.00;99.90
1534;DHT22;760;48.822;9.304;2023-05-10T19:35:14;14.00;99.90
1534;DHT22;760;48.822;9.304;2023-05-10T19:37:41;14.00;99.90
1534;DHT22;760;48.822;9.304;2023-05-10T19:40:11;13.90;99.90
1534;DHT22;760;48.822;9.304;2023-05-10T19:42:37;13.90;99.90
1534;DHT22;760;48.822;9.304;2023-05-10T19:45:03;13.90;99.90
1534;DHT22;760;48.822;9.304;2023-05-10T19:47:28;13.80;99.90
1534;DHT22;760;48.822;9.304;2023-05-10T19:49:54;13.80;99.90
1534;DHT22;760;48.822;9.304;2023-05-10T19:52:20;13.80;99.90
1534;DHT22;760;48.822;9.304;2023-05-10T19:54:47;13.70;99.90
1534;DHT22;760;48.822;9.304;2023-05-10T19:57:12;13.60;99.90
1534;DHT22;760;48.822;9.304;2023-05-10T19:59:38;13.60;99.90
1534;DHT22;760;48.822;9.304;2023-05-10T20:02:03;13.60;99.90
1534;DHT22;760;48.822;9.304;2023-05-10T20:04:29;13.60;99.90
1534;DHT22;760;48.822;9.304;2023-05-10T20:06:54;13.60;99.90
1534;DHT22;760;48.822;9.304;2023-05-10T20:09:20;13.60;99.90
1534;DHT22;760;48.822;9.304;2023-05-10T20:11:46;13.60;99.90
1534;DHT22;760;48.822;9.304;2023-05-10T20:14:11;13.60;99.90
1534;DHT22;760;48.822;9.304;2023-05-10T20:16:37;13.50;99.90
1534;DHT22;760;48.822;9.304;2023-05-10T20:19:02;13.50;99.90
1534;DHT22;760;48.822;9.304;2023-05-10T20:21:28;13.50;99.90
1534;DHT22;760;48.822;9.304;2023-05-10T20:23:53;13.50;99.90